Time;durP1;ratioP1;P1;durP2;ratioP2;P2;SDS_P1;SDS_P2;PMS_P1;PMS_P2;Temp;Humidity;BMP_temperature;BMP_pressure;BME280_temperature;BME280_humidity;BME280_pressure;Samples;Min_cycle;Max_cycle;Signal;HPM_P1;HPM_P2
2022/11/29 00:01:40;;;;;;;;;10.25;9.50;;;;;10.60;78.70;100828.97;5067976;28;46329;-81
2022/11/29 00:04:06;;;;;;;;;13.00;10.00;;;;;10.50;78.64;100811.97;5050127;28;45463;-81
2022/11/29 00:06:33;;;;;;;;;10.50;10.00;;;;;10.39;79.07;100791.41;5050154;28;45145;-85
2022/11/29 00:09:05;;;;;;;;;9.00;9.00;;;;;10.57;78.75;100819.22;5050459;28;45303;-80
2022/11/29 00:14:19;;;;;;;;;9.25;8.75;;;;;10.33;79.02;100777.19;5055564;28;45145;-82
2022/11/29 00:16:49;;;;;;;;;9.25;8.75;;;;;10.62;79.11;100827.28;5070363;28;45030;-85
2022/11/29 00:19:15;;;;;;;;;11.00;11.00;;;;;10.49;78.92;100809.28;5068164;28;45100;-85
2022/11/29 00:21:40;;;;;;;;;9.25;8.50;;;;;10.50;79.13;100804.09;5070052;28;45373;-85
2022/11/29 00:24:06;;;;;;;;;9.00;8.33;;;;;10.66;79.13;100834.44;5069993;28;64686;-80
2022/11/29 00:26:32;;;;;;;;;11.00;11.00;;;;;10.47;78.68;100795.19;5069641;28;45294;-85
2022/11/29 00:28:57;;;;;;;;;9.00;8.50;;;;;10.58;78.83;100820.13;5070496;28;45261;-84
2022/11/29 00:31:31;;;;;;;;;10.00;9.50;;;;;10.61;78.89;100819.34;5069497;28;52628;-85
2022/11/29 00:33:58;;;;;;;;;10.00;9.00;;;;;10.65;78.78;100837.91;5069698;28;45484;-85
2022/11/29 00:36:24;;;;;;;;;13.00;11.00;;;;;10.38;78.99;100786.97;5050463;28;44946;-81
2022/11/29 00:38:50;;;;;;;;;11.75;10.00;;;;;10.53;78.63;100821.69;5049917;28;44958;-85
2022/11/29 00:41:15;;;;;;;;;8.00;8.00;;;;;10.57;78.69;100835.00;5048856;28;45147;-86
2022/11/29 00:43:41;;;;;;;;;8.00;8.00;;;;;10.58;78.80;100828.00;5049474;28;45045;-85
2022/11/29 00:46:07;;;;;;;;;3.25;3.25;;;;;10.49;78.60;100822.41;5049725;28;45107;-86
2022/11/29 00:48:32;;;;;;;;;9.75;8.00;;;;;10.54;78.68;100841.88;5049261;28;45182;-84
2022/11/29 00:50:58;;;;;;;;;8.75;8.75;;;;;10.58;78.90;100849.03;5056992;28;46423;-85
2022/11/29 00:53:23;;;;;;;;;9.00;9.00;;;;;10.54;78.75;100847.13;5067160;28;45085;-86
2022/11/29 00:55:50;;;;;;;;;12.50;9.00;;;;;10.32;79.21;100808.69;5038021;28;45311;-85
2022/11/29 00:58:16;;;;;;;;;8.75;8.75;;;;;10.46;79.24;100832.84;5049405;28;45372;-84
2022/11/29 01:00:42;;;;;;;;;9.25;6.50;;;;;10.47;79.08;100835.50;5045199;28;47419;-81
2022/11/29 01:03:08;;;;;;;;;7.50;7.50;;;;;10.50;79.25;100840.00;5048891;28;45183;-82
2022/11/29 01:05:33;;;;;;;;;12.00;10.00;;;;;10.52;79.24;100840.94;5048230;28;45124;-81
2022/11/29 01:07:58;;;;;;;;;7.00;7.00;;;;;10.22;79.31;100794.28;5055243;28;45453;-81
2022/11/29 01:10:25;;;;;;;;;8.00;5.00;;;;;10.55;79.08;100843.69;5068569;28;45980;-80
2022/11/29 01:12:50;;;;;;;;;8.75;7.25;;;;;10.38;79.11;100810.63;5055920;28;45361;-81
2022/11/29 01:15:16;;;;;;;;;8.25;7.75;;;;;10.49;79.15;100827.66;5048683;28;45131;-83
2022/11/29 01:17:41;;;;;;;;;11.00;9.75;;;;;10.47;79.10;100832.00;5048396;28;45066;-81
2022/11/29 01:20:08;;;;;;;;;8.25;7.50;;;;;10.55;79.36;100851.56;5049422;28;45191;-80
2022/11/29 01:22:34;;;;;;;;;9.00;8.75;;;;;10.55;79.00;100851.56;5048639;28;45141;-81
2022/11/29 01:25:00;;;;;;;;;9.00;8.50;;;;;10.45;79.09;100836.31;5061726;28;45526;-80
2022/11/29 01:27:25;;;;;;;;;7.50;6.00;;;;;10.49;79.31;100851.31;5068595;28;45191;-81
2022/11/29 01:29:50;;;;;;;;;8.00;7.00;;;;;10.46;79.06;100846.88;5068405;28;45222;-80
2022/11/29 01:32:16;;;;;;;;;8.00;8.00;;;;;10.48;79.10;100854.78;5068590;28;63571;-82
2022/11/29 01:34:41;;;;;;;;;9.33;8.00;;;;;10.41;79.41;100858.94;5063547;28;45729;-80
2022/11/29 01:37:09;;;;;;;;;7.00;5.67;;;;;10.29;79.26;100850.59;5048835;28;54909;-81
2022/11/29 01:39:34;;;;;;;;;5.75;5.25;;;;;10.12;79.08;100826.28;5047226;28;45153;-84
2022/11/29 01:42:01;;;;;;;;;6.50;5.00;;;;;10.20;79.47;100853.75;5047309;28;45137;-83
2022/11/29 01:44:27;;;;;;;;;7.75;5.75;;;;;10.22;79.46;100867.81;5048695;28;45073;-85
2022/11/29 01:46:53;;;;;;;;;6.75;6.75;;;;;10.20;80.03;100866.88;5048808;28;45275;-84
2022/11/29 01:49:27;;;;;;;;;9.00;7.00;;;;;10.21;79.77;100868.66;5048368;28;45876;-84
2022/11/29 01:52:01;;;;;;;;;7.25;7.25;;;;;10.22;79.45;100866.94;5048592;28;45675;-82
2022/11/29 01:54:28;;;;;;;;;9.75;6.00;;;;;10.06;79.61;100842.72;5046742;28;45120;-80
2022/11/29 01:56:54;;;;;;;;;5.25;5.25;;;;;10.23;79.70;100876.59;5048847;28;45031;-81
2022/11/29 01:59:23;;;;;;;;;7.25;5.00;;;;;10.23;79.73;100879.22;5048513;28;45395;-82
2022/11/29 02:01:48;;;;;;;;;5.00;5.00;;;;;10.09;79.39;100860.31;5062992;28;45505;-79
2022/11/29 02:04:15;;;;;;;;;7.75;7.25;;;;;10.23;79.45;100885.38;5058623;28;45533;-80
2022/11/29 02:06:40;;;;;;;;;8.00;5.00;;;;;10.09;79.62;100866.44;5041962;28;45338;-80
2022/11/29 02:09:17;;;;;;;;;8.25;5.00;;;;;9.92;79.22;100833.41;5040743;28;45151;-80
2022/11/29 02:11:56;;;;;;;;;4.75;4.75;;;;;9.96;79.36;100850.19;5048296;28;45172;-80
2022/11/29 02:14:38;;;;;;;;;7.50;6.00;;;;;10.19;79.63;100891.34;5048358;28;45215;-85
2022/11/29 02:17:16;;;;;;;;;4.00;4.00;;;;;10.00;79.82;100857.31;5047909;28;45350;-83
2022/11/29 02:20:12;;;;;;;;;5.25;4.75;;;;;10.20;79.58;100895.78;5047962;28;45898;-84
2022/11/29 02:22:55;;;;;;;;;7.00;6.00;;;;;10.24;79.82;100896.81;5048022;28;45617;-81
2022/11/29 02:25:45;;;;;;;;;4.25;3.75;;;;;10.27;79.82;100899.56;5047990;28;45296;-85
2022/11/29 02:28:45;;;;;;;;;4.00;4.00;;;;;10.29;79.83;100890.88;5048474;28;45282;-84
2022/11/29 02:31:47;;;;;;;;;3.00;2.00;;;;;10.32;79.57;100895.38;5047905;28;46221;-84
2022/11/29 02:34:19;;;;;;;;;5.00;4.50;;;;;10.27;79.77;100879.44;5048156;28;45320;-84
2022/11/29 02:37:11;;;;;;;;;6.50;5.00;;;;;10.38;79.65;100902.59;5048108;28;45409;-80
2022/11/29 02:39:56;;;;;;;;;4.25;4.25;;;;;10.40;79.75;100898.31;5048283;28;45132;-82
2022/11/29 02:42:47;;;;;;;;;7.75;7.00;;;;;10.43;79.63;100898.41;5047519;28;45721;-85
2022/11/29 02:45:36;;;;;;;;;4.50;4.00;;;;;10.42;79.36;100904.50;5047911;28;45292;-84
2022/11/29 02:48:27;;;;;;;;;4.00;3.50;;;;;10.29;79.71;100879.47;5047993;28;45203;-83
2022/11/29 02:51:13;;;;;;;;;4.25;4.00;;;;;10.33;79.47;100892.78;5048118;28;45169;-84
2022/11/29 02:54:07;;;;;;;;;7.75;5.00;;;;;10.41;79.67;100908.88;5047178;28;45630;-85
2022/11/29 02:56:35;;;;;;;;;4.00;4.00;;;;;10.41;79.73;100908.88;5033904;28;45391;-84
2022/11/29 02:59:12;;;;;;;;;3.75;3.75;;;;;10.42;79.65;100904.50;5047964;28;45110;-81
2022/11/29 03:01:49;;;;;;;;;3.25;3.00;;;;;10.16;79.84;100861.44;5041257;28;45143;-80
2022/11/29 03:04:32;;;;;;;;;4.50;4.00;;;;;10.45;79.79;100912.50;5028925;28;48033;-81
2022/11/29 03:07:24;;;;;;;;;3.00;3.00;;;;;10.46;79.61;100909.03;5047608;28;45102;-80
2022/11/29 03:10:21;;;;;;;;;3.50;3.25;;;;;10.43;79.60;100908.91;5033433;28;45148;-81
2022/11/29 03:12:50;;;;;;;;;4.50;4.00;;;;;10.47;79.79;100913.44;5046429;28;45218;-83
2022/11/29 03:15:29;;;;;;;;;4.75;4.75;;;;;10.49;79.71;100910.06;5028985;28;47130;-80
2022/11/29 03:18:25;;;;;;;;;6.75;5.00;;;;;10.52;79.86;100914.50;5047377;28;45640;-80
2022/11/29 03:21:04;;;;;;;;;6.50;6.50;;;;;10.33;79.96;100882.28;5049744;28;45227;-85
2022/11/29 03:23:42;;;;;;;;;4.00;4.00;;;;;10.24;79.93;100868.78;5050249;28;45455;-84
2022/11/29 03:26:13;;;;;;;;;4.00;3.00;;;;;10.41;79.66;100898.34;5049913;28;45783;-81
2022/11/29 03:28:45;;;;;;;;;5.00;5.00;;;;;10.31;79.95;100878.72;5050290;28;45607;-80
2022/11/29 03:31:23;;;;;;;;;4.00;4.00;;;;;10.54;79.81;100921.63;5050086;28;45615;-81
2022/11/29 03:34:16;;;;;;;;;3.75;3.00;;;;;10.58;79.66;100926.13;5050598;28;45286;-83
2022/11/29 03:36:57;;;;;;;;;4.25;4.25;;;;;10.59;79.62;100938.47;5036120;28;45305;-81
2022/11/29 03:39:32;;;;;;;;;5.50;4.00;;;;;10.56;79.62;100932.19;5049891;28;45261;-82
2022/11/29 03:42:05;;;;;;;;;4.00;4.00;;;;;10.64;79.61;100942.97;5050684;28;45349;-84
2022/11/29 03:44:38;;;;;;;;;4.00;4.00;;;;;10.51;79.93;100918.88;5050179;28;45176;-84
2022/11/29 03:47:19;;;;;;;;;7.00;5.00;;;;;10.60;79.82;100926.22;5049888;28;45893;-85
2022/11/29 03:49:52;;;;;;;;;6.75;5.00;;;;;10.58;79.57;100925.25;5064290;28;45271;-84
2022/11/29 03:52:29;;;;;;;;;6.75;4.50;;;;;10.68;80.05;100945.78;5069991;28;45169;-83
2022/11/29 03:55:20;;;;;;;;;7.00;7.00;;;;;10.58;79.77;100930.50;5050457;28;45100;-84
2022/11/29 03:58:11;;;;;;;;;7.75;5.75;;;;;10.70;79.97;100952.00;5050326;28;45149;-83
2022/11/29 04:00:46;;;;;;;;;5.00;4.50;;;;;10.70;79.86;100959.88;5031175;28;45706;-82
2022/11/29 04:03:52;;;;;;;;;5.75;4.50;;;;;10.69;79.73;100957.19;5050649;28;45186;-80
2022/11/29 04:06:32;;;;;;;;;6.50;5.00;;;;;10.66;79.90;100960.59;5004314;28;45373;-81
2022/11/29 04:09:34;;;;;;;;;3.50;3.00;;;;;10.43;79.65;100919.41;5070422;28;45624;-81
2022/11/29 04:12:37;;;;;;;;;3.50;3.50;;;;;10.68;79.61;100964.19;5052442;28;45706;-80
2022/11/29 04:15:33;;;;;;;;;4.00;4.00;;;;;10.67;79.36;100967.66;5070767;28;45089;-81
2022/11/29 04:18:07;;;;;;;;;4.00;4.00;;;;;10.66;79.49;100971.13;5070109;28;45381;-81
2022/11/29 04:20:49;;;;;;;;;3.50;3.50;;;;;10.63;79.17;100971.00;5051693;28;47699;-81
2022/11/29 04:23:33;;;;;;;;;4.50;4.00;;;;;10.62;79.30;100978.84;5069808;28;45840;-80
2022/11/29 04:26:47;;;;;;;;;6.75;4.00;;;;;10.59;79.21;100977.00;5070830;28;45343;-80
2022/11/29 04:29:19;;;;;;;;;5.00;5.00;;;;;10.58;79.56;100980.44;4996443;28;45301;-80
2022/11/29 04:32:33;;;;;;;;;4.00;3.75;;;;;10.37;79.39;100948.97;5069774;28;45414;-81
2022/11/29 04:35:15;;;;;;;;;4.75;3.75;;;;;10.53;79.56;100982.00;5044301;28;45592;-81
2022/11/29 04:38:05;;;;;;;;;3.25;3.00;;;;;10.49;79.62;100990.59;5049625;28;45714;-81
2022/11/29 04:41:11;;;;;;;;;4.25;3.00;;;;;10.45;79.61;100992.22;5049561;28;44967;-81
2022/11/29 04:43:57;;;;;;;;;3.00;3.00;;;;;10.44;79.94;100995.69;5029137;28;45443;-80
2022/11/29 04:46:32;;;;;;;;;6.00;4.00;;;;;10.44;79.68;100997.41;5028708;28;45673;-81
2022/11/29 04:49:18;;;;;;;;;4.00;4.00;;;;;10.42;79.96;101001.72;5030049;28;45105;-80
2022/11/29 04:52:14;;;;;;;;;5.00;4.25;;;;;10.41;79.74;101002.56;5028151;28;45057;-85
2022/11/29 04:54:48;;;;;;;;;4.00;3.25;;;;;10.41;79.88;101003.44;5042725;28;45374;-85
2022/11/29 04:57:34;;;;;;;;;5.50;4.00;;;;;10.43;79.62;101003.50;5049235;28;47755;-84
2022/11/29 05:00:10;;;;;;;;;4.00;4.00;;;;;10.43;79.70;101006.13;5049573;28;45171;-85
2022/11/29 05:02:52;;;;;;;;;3.00;3.00;;;;;10.28;79.54;100980.16;5048642;28;45126;-85
2022/11/29 05:05:39;;;;;;;;;3.75;3.75;;;;;10.34;79.40;100993.50;5029274;28;45959;-81
2022/11/29 05:08:44;;;;;;;;;4.00;4.00;;;;;10.43;79.51;101022.78;5040699;28;45319;-83
2022/11/29 05:11:33;;;;;;;;;4.75;4.00;;;;;10.44;79.70;101023.69;5052816;28;45265;-82
2022/11/29 05:14:23;;;;;;;;;5.00;4.25;;;;;10.35;79.69;101015.47;5068477;28;44986;-80
2022/11/29 05:17:26;;;;;;;;;4.25;4.25;;;;;10.43;79.63;101029.78;5054508;28;47051;-81
2022/11/29 05:20:07;;;;;;;;;5.00;4.00;;;;;10.28;79.52;101014.28;5068736;28;45582;-83
2022/11/29 05:22:53;;;;;;;;;5.00;5.00;;;;;10.15;79.35;100998.84;5029272;28;45323;-80
2022/11/29 05:25:37;;;;;;;;;4.00;3.25;;;;;10.28;79.53;101030.94;5048175;28;45240;-80
2022/11/29 05:28:08;;;;;;;;;3.00;3.00;;;;;10.23;79.52;101037.72;5048831;28;46178;-82
2022/11/29 05:31:00;;;;;;;;;5.00;4.00;;;;;10.15;79.07;101039.16;5047882;28;45718;-84
2022/11/29 05:33:51;;;;;;;;;3.00;3.00;;;;;10.11;79.39;101045.13;5063092;28;45013;-83
2022/11/29 05:36:23;;;;;;;;;4.50;4.50;;;;;10.06;79.59;101050.19;5050540;28;45210;-80
2022/11/29 05:39:23;;;;;;;;;4.00;4.00;;;;;10.02;79.66;101049.97;5049227;28;46136;-80
2022/11/29 05:42:06;;;;;;;;;4.00;4.00;;;;;9.96;79.34;101058.50;5042497;28;45296;-80
2022/11/29 05:44:46;;;;;;;;;3.00;3.00;;;;;9.93;79.12;101073.22;5052884;28;45042;-85
2022/11/29 05:47:19;;;;;;;;;4.75;4.00;;;;;9.81;79.66;101058.75;5048816;28;45165;-81
2022/11/29 05:50:01;;;;;;;;;3.00;3.00;;;;;9.68;79.34;101045.03;5049228;28;45621;-80
2022/11/29 05:52:42;;;;;;;;;3.50;3.25;;;;;9.83;79.67;101070.19;5048848;28;45744;-80
2022/11/29 05:55:14;;;;;;;;;4.00;4.00;;;;;9.83;79.77;101072.81;5031217;28;45192;-80
2022/11/29 05:57:39;;;;;;;;;3.00;3.00;;;;;9.78;79.99;101062.97;5049217;28;45320;-80
2022/11/29 06:00:05;;;;;;;;;7.00;7.00;;;;;9.81;79.64;101084.13;5030229;28;47480;-80
2022/11/29 06:03:02;;;;;;;;;4.00;4.00;;;;;9.82;79.70;101084.16;5048449;28;45189;-82
2022/11/29 06:05:38;;;;;;;;;3.50;3.50;;;;;9.82;79.60;101088.53;5048282;28;45203;-80
2022/11/29 06:08:18;;;;;;;;;3.00;3.00;;;;;9.68;79.60;101069.53;5048905;28;45107;-80
2022/11/29 06:11:12;;;;;;;;;6.00;4.00;;;;;9.76;79.60;101090.91;5066082;28;45510;-81
2022/11/29 06:14:12;;;;;;;;;7.25;7.00;;;;;9.70;79.36;101091.50;5068352;28;45660;-81
2022/11/29 06:16:46;;;;;;;;;9.00;8.00;;;;;9.64;79.48;101096.47;5010754;28;45663;-80
2022/11/29 06:19:52;;;;;;;;;9.25;8.00;;;;;9.31;79.79;101043.44;5029545;28;45356;-82
2022/11/29 06:22:49;;;;;;;;;7.00;5.25;;;;;9.37;79.69;101066.44;5041718;28;45520;-81
2022/11/29 06:25:47;;;;;;;;;4.25;4.25;;;;;9.49;79.71;101101.06;5047631;28;45566;-81
2022/11/29 06:28:44;;;;;;;;;6.00;5.75;;;;;9.40;79.72;101100.63;4999155;28;45112;-80
2022/11/29 06:31:23;;;;;;;;;7.25;6.00;;;;;9.30;79.48;101089.72;5049578;28;45270;-81
2022/11/29 06:34:19;;;;;;;;;11.50;11.00;;;;;9.37;79.72;101105.78;5048525;28;46444;-81
2022/11/29 06:37:24;;;;;;;;;18.50;18.00;;;;;9.33;79.73;101111.69;5027854;28;45328;-81
2022/11/29 06:39:49;;;;;;;;;14.75;14.00;;;;;9.08;79.66;101071.25;4986417;28;45121;-82
2022/11/29 06:42:17;;;;;;;;;12.00;11.25;;;;;9.11;79.41;101094.06;5047488;28;45147;-81
2022/11/29 06:44:43;;;;;;;;;13.00;12.00;;;;;9.11;79.69;101115.03;5044810;28;45853;-81
2022/11/29 06:47:36;;;;;;;;;12.75;11.25;;;;;8.94;79.99;101086.34;5046811;28;45093;-81
2022/11/29 06:50:27;;;;;;;;;14.75;12.75;;;;;9.12;79.56;101122.13;5046828;28;45268;-80
2022/11/29 06:53:20;;;;;;;;;14.75;12.00;;;;;9.08;79.71;101131.56;5041232;28;45260;-86
2022/11/29 06:55:45;;;;;;;;;13.50;11.75;;;;;9.05;79.95;101129.66;5041391;28;45914;-81
2022/11/29 06:58:47;;;;;;;;;15.33;13.33;;;;;9.04;80.01;101135.75;5050621;28;45101;-80
2022/11/29 07:01:33;;;;;;;;;12.00;11.50;;;;;9.03;79.94;101138.31;5050669;28;45171;-80
2022/11/29 07:04:12;;;;;;;;;10.25;10.25;;;;;9.00;79.97;101141.66;5050939;28;44778;-81
2022/11/29 07:06:37;;;;;;;;;11.75;9.50;;;;;8.83;80.02;101108.53;5050503;28;45831;-87
2022/11/29 07:09:13;;;;;;;;;8.50;7.00;;;;;8.70;80.12;101093.94;5050759;28;45187;-81
2022/11/29 07:11:40;;;;;;;;;16.50;14.00;;;;;8.95;80.00;101148.41;5050775;28;45216;-86
2022/11/29 07:14:05;;;;;;;;;8.25;8.25;;;;;8.79;79.50;101131.06;5032577;28;45307;-83
2022/11/29 07:16:52;;;;;;;;;10.00;9.50;;;;;8.87;79.66;101149.78;5049049;28;47285;-81
2022/11/29 07:19:41;;;;;;;;;14.75;13.00;;;;;8.83;79.74;101147.84;5030673;28;45532;-81
2022/11/29 07:22:28;;;;;;;;;15.25;13.00;;;;;8.73;79.93;101143.88;5044951;28;45220;-83
2022/11/29 07:25:16;;;;;;;;;14.25;13.00;;;;;8.78;79.96;101151.97;5049034;28;45724;-81
2022/11/29 07:27:51;;;;;;;;;14.00;12.75;;;;;8.78;80.00;101157.22;5035570;28;45556;-81
2022/11/29 07:30:21;;;;;;;;;12.75;10.00;;;;;8.77;80.13;101150.19;5029339;28;45390;-82
2022/11/29 07:33:04;;;;;;;;;12.50;12.00;;;;;8.74;79.94;101153.53;5030953;28;45439;-81
2022/11/29 07:35:39;;;;;;;;;12.50;11.75;;;;;8.68;79.85;101147.13;5031570;28;45040;-81
2022/11/29 07:38:28;;;;;;;;;11.25;9.25;;;;;8.64;79.68;101151.28;5031957;28;47892;-83
2022/11/29 07:41:02;;;;;;;;;12.00;10.00;;;;;8.69;79.63;101160.28;5048854;28;45538;-84
2022/11/29 07:43:39;;;;;;;;;10.50;9.50;;;;;8.42;79.56;101122.25;5048232;28;45518;-83
2022/11/29 07:46:05;;;;;;;;;18.25;17.50;;;;;8.50;79.37;101140.13;5048627;28;45176;-81
2022/11/29 07:48:30;;;;;;;;;21.75;20.25;;;;;8.45;79.83;101135.50;5048544;28;45435;-80
2022/11/29 07:50:56;;;;;;;;;16.33;14.00;;;;;8.48;80.03;101143.53;5048574;28;59821;-79
2022/11/29 07:53:22;;;;;;;;;19.00;18.25;;;;;8.68;79.94;101162.84;5048279;28;45049;-82
2022/11/29 07:55:49;;;;;;;;;17.50;14.25;;;;;8.69;80.10;101165.53;5039238;28;45151;-81
2022/11/29 07:58:16;;;;;;;;;19.75;18.00;;;;;8.78;79.78;101175.56;5014903;28;45722;-82
2022/11/29 08:00:43;;;;;;;;;19.75;18.75;;;;;8.84;80.28;101183.72;5027160;28;45539;-83
2022/11/29 08:03:09;;;;;;;;;14.50;13.75;;;;;8.89;80.48;101184.84;5047885;28;45261;-82
2022/11/29 08:05:36;;;;;;;;;12.25;11.75;;;;;8.94;80.30;101185.06;5024455;28;44927;-80
2022/11/29 08:08:02;;;;;;;;;17.50;15.00;;;;;8.99;80.35;101180.94;5048519;28;45781;-80
2022/11/29 08:10:28;;;;;;;;;15.75;14.75;;;;;9.00;80.31;101164.38;5048983;28;45175;-80
2022/11/29 08:12:53;;;;;;;;;14.25;14.25;;;;;8.85;80.42;101132.19;5050358;28;45082;-81
2022/11/29 08:15:21;;;;;;;;;15.25;14.25;;;;;9.25;80.82;101185.66;5049417;28;45435;-80
2022/11/29 08:17:47;;;;;;;;;16.00;13.50;;;;;9.09;80.60;101145.56;5047231;28;45870;-81
2022/11/29 08:20:14;;;;;;;;;14.25;11.50;;;;;9.44;80.73;101189.16;5049185;28;45229;-82
2022/11/29 08:22:39;;;;;;;;;13.00;13.00;;;;;9.41;80.43;101165.38;5049331;28;45314;-81
2022/11/29 08:25:06;;;;;;;;;15.50;13.75;;;;;9.59;80.54;101197.72;5048722;28;45146;-81
2022/11/29 08:27:32;;;;;;;;;16.00;13.75;;;;;9.59;80.78;101181.97;5034835;28;45597;-81
2022/11/29 08:29:57;;;;;;;;;17.50;15.00;;;;;9.71;80.47;101193.06;5043425;28;45396;-81
2022/11/29 08:32:24;;;;;;;;;14.50;13.00;;;;;9.72;80.65;101181.72;5047637;28;45047;-80
2022/11/29 08:34:49;;;;;;;;;16.50;14.00;;;;;9.98;80.43;101205.59;5046940;28;45727;-80
2022/11/29 08:37:15;;;;;;;;;13.00;11.33;;;;;10.04;80.40;101213.75;5049098;28;45840;-83
2022/11/29 08:39:40;;;;;;;;;14.33;13.00;;;;;10.02;80.40;101203.19;5048513;28;61969;-82
2022/11/29 08:42:05;;;;;;;;;14.00;14.00;;;;;9.96;80.39;101181.91;5048613;28;45154;-80
2022/11/29 08:44:31;;;;;;;;;12.00;12.00;;;;;9.94;80.26;101169.53;5046876;28;56293;-80
2022/11/29 08:49:59;;;;;;;;;16.25;15.25;;;;;10.29;80.13;101227.16;5043684;28;45778;-82
2022/11/29 08:55:09;;;;;;;;;20.50;18.00;;;;;10.43;80.26;101242.63;5043988;28;45247;-80
2022/11/29 08:57:35;;;;;;;;;19.50;17.75;;;;;10.49;80.20;101249.06;5037953;28;45453;-81
2022/11/29 09:00:00;;;;;;;;;21.67;17.00;;;;;10.44;80.09;101237.44;5041177;28;46079;-81
2022/11/29 09:02:25;;;;;;;;;20.50;18.25;;;;;10.31;80.04;101207.09;5043060;28;45176;-82
2022/11/29 09:04:51;;;;;;;;;20.75;19.50;;;;;10.39;80.10;101222.28;5046749;28;45183;-80
2022/11/29 09:07:16;;;;;;;;;25.00;22.25;;;;;10.54;80.07;101252.78;5045200;28;45529;-80
2022/11/29 09:09:41;;;;;;;;;19.67;19.67;;;;;10.57;79.90;101255.50;5048187;28;45052;-80
2022/11/29 09:12:07;;;;;;;;;21.00;17.33;;;;;10.38;80.10;101229.28;5044925;28;58705;-80
2022/11/29 09:14:33;;;;;;;;;26.50;24.00;;;;;10.59;79.97;101263.50;5047082;28;45156;-83
2022/11/29 09:16:58;;;;;;;;;25.00;23.00;;;;;10.55;80.23;101266.81;5047330;28;45926;-80
2022/11/29 09:19:23;;;;;;;;;31.33;28.33;;;;;10.58;80.10;101261.66;5046935;28;50224;-80
2022/11/29 09:21:49;;;;;;;;;28.50;23.50;;;;;10.64;79.95;101276.78;5047186;28;45439;-80
2022/11/29 09:24:14;;;;;;;;;34.67;29.33;;;;;10.55;80.00;101267.72;5047716;28;61657;-80
2022/11/29 09:26:41;;;;;;;;;33.75;31.25;;;;;10.49;80.04;101246.44;5046827;28;45613;-81
2022/11/29 09:29:07;;;;;;;;;42.25;35.50;;;;;10.64;79.61;101287.31;5048465;28;45298;-80
2022/11/29 09:31:33;;;;;;;;;50.25;38.50;;;;;10.64;80.01;101289.94;5048595;28;45199;-81
2022/11/29 09:33:59;;;;;;;;;42.75;37.00;;;;;10.46;80.07;101256.78;5048404;28;45117;-81
2022/11/29 09:36:24;;;;;;;;;42.00;37.00;;;;;10.64;80.08;101282.97;5048024;28;45741;-81
2022/11/29 09:38:50;;;;;;;;;43.50;38.75;;;;;10.67;80.02;101280.47;5048751;28;45040;-80
2022/11/29 09:41:36;;;;;;;;;48.75;39.75;;;;;10.83;80.07;101305.66;5047744;28;45151;-82
2022/11/29 09:44:35;;;;;;;;;48.25;37.75;;;;;10.89;80.29;101305.94;5048756;28;45068;-80
2022/11/29 09:47:36;;;;;;;;;44.00;37.50;;;;;10.92;80.06;101299.91;5047826;28;45272;-80
2022/11/29 09:50:24;;;;;;;;;15.50;13.50;;;;;11.03;79.71;101304.81;5047429;28;45239;-84
2022/11/29 09:53:11;;;;;;;;;50.00;41.00;;;;;11.11;80.01;101313.00;5027909;28;45331;-83
2022/11/29 09:55:36;;;;;;;;;53.25;41.75;;;;;11.17;79.77;101315.88;5035605;28;45624;-80
2022/11/29 09:58:04;;;;;;;;;52.75;44.25;;;;;11.12;79.26;101306.88;5037461;28;45430;-80
2022/11/29 10:00:34;;;;;;;;;51.25;42.75;;;;;11.21;79.06;101328.31;5036970;28;45833;-83
2022/11/29 10:03:22;;;;;;;;;56.25;45.75;;;;;11.29;79.17;101328.66;5039434;28;45669;-80
2022/11/29 10:05:56;;;;;;;;;55.25;45.25;;;;;11.29;79.35;101328.66;5047829;28;45142;-82
2022/11/29 10:08:47;;;;;;;;;44.75;38.50;;;;;11.42;78.85;101337.91;5047805;28;45658;-81
2022/11/29 10:11:32;;;;;;;;;43.75;37.00;;;;;11.47;78.86;101339.00;5047624;28;45454;-82
2022/11/29 10:14:05;;;;;;;;;45.00;36.75;;;;;11.32;78.99;101313.84;5048482;28;45078;-82
2022/11/29 10:17:04;;;;;;;;;39.25;35.00;;;;;11.36;78.25;101315.78;5029340;28;45185;-82
2022/11/29 10:19:35;;;;;;;;;39.75;36.75;;;;;11.58;78.34;101349.16;5042223;28;46177;-83
2022/11/29 10:22:19;;;;;;;;;46.00;38.00;;;;;11.65;78.28;101344.13;5028019;28;45557;-82
2022/11/29 10:24:47;;;;;;;;;46.50;38.50;;;;;11.70;78.18;101338.19;5023756;28;45666;-82
2022/11/29 10:27:18;;;;;;;;;40.50;37.50;;;;;11.67;77.47;101329.28;5025090;28;45569;-84
2022/11/29 10:29:47;;;;;;;;;50.25;41.00;;;;;11.61;77.47;101320.28;5012183;28;45398;-81
2022/11/29 10:32:14;;;;;;;;;43.00;38.00;;;;;11.75;77.76;101355.06;5027940;28;45384;-84
2022/11/29 10:34:40;;;;;;;;;47.50;39.75;;;;;11.64;77.57;101324.78;5007240;28;45350;-85
2022/11/29 10:37:13;;;;;;;;;44.25;37.25;;;;;11.80;77.54;101350.88;4993482;28;45456;-84
2022/11/29 10:39:42;;;;;;;;;41.00;35.75;;;;;11.83;76.99;101351.06;4992668;28;45484;-84
2022/11/29 10:45:14;;;;;;;;;46.75;37.75;;;;;11.91;76.83;101353.06;4992432;28;45400;-84
2022/11/29 10:47:40;;;;;;;;;43.75;37.00;;;;;11.90;77.15;101349.53;4992342;28;45653;-83
2022/11/29 10:50:06;;;;;;;;;48.00;38.75;;;;;11.80;76.86;101323.66;4992831;28;46299;-84
2022/11/29 10:52:32;;;;;;;;;41.50;36.75;;;;;11.98;77.15;101356.00;4992326;28;45439;-83
2022/11/29 10:54:58;;;;;;;;;39.75;36.25;;;;;11.96;76.78;101340.97;4992474;28;45535;-82
2022/11/29 10:57:24;;;;;;;;;45.75;37.00;;;;;11.90;76.63;101324.94;4991017;28;45559;-83
2022/11/29 11:00:08;;;;;;;;;39.00;35.25;;;;;11.84;76.44;101310.69;4992039;28;45443;-83
2022/11/29 11:02:34;;;;;;;;;40.00;36.25;;;;;12.06;75.91;101337.84;4991949;28;45384;-83
2022/11/29 11:05:00;;;;;;;;;42.50;37.00;;;;;12.09;76.12;101343.25;4992940;28;45466;-82
2022/11/29 11:07:28;;;;;;;;;42.50;36.75;;;;;12.16;75.99;101350.53;5007408;28;45663;-83
2022/11/29 11:09:56;;;;;;;;;42.00;35.50;;;;;12.17;75.94;101348.78;4992359;28;46707;-82
2022/11/29 11:12:26;;;;;;;;;48.75;38.75;;;;;11.92;75.79;101305.75;4992261;28;45636;-83
2022/11/29 11:15:11;;;;;;;;;44.75;36.75;;;;;12.06;75.76;101319.41;4992593;28;45383;-84
2022/11/29 11:17:38;;;;;;;;;45.50;37.50;;;;;12.25;75.86;101348.25;4992760;28;45336;-83
2022/11/29 11:20:18;;;;;;;;;54.25;43.75;;;;;12.22;75.97;101331.44;5012225;28;46576;-82
2022/11/29 11:22:59;;;;;;;;;42.25;36.25;;;;;12.36;75.84;101346.00;5011716;28;45391;-85
2022/11/29 11:25:37;;;;;;;;;45.25;38.25;;;;;12.40;75.74;101345.28;5011387;28;45452;-83
2022/11/29 11:28:24;;;;;;;;;44.25;36.00;;;;;12.42;75.25;101353.28;5012464;28;45571;-82
2022/11/29 11:30:57;;;;;;;;;48.50;38.50;;;;;12.40;75.57;101347.91;5011828;28;46612;-83
2022/11/29 11:33:28;;;;;;;;;49.75;39.00;;;;;12.39;75.35;101348.75;5028294;28;45794;-84
2022/11/29 11:36:05;;;;;;;;;43.50;35.25;;;;;12.36;75.19;101346.00;5032230;28;45400;-82
2022/11/29 11:38:33;;;;;;;;;47.75;37.25;;;;;12.30;75.11;101351.06;5012438;28;45387;-81
2022/11/29 11:41:17;;;;;;;;;49.50;38.75;;;;;12.24;75.50;101345.56;5031320;28;45471;-83
2022/11/29 11:44:19;;;;;;;;;41.00;35.50;;;;;12.11;74.71;101331.91;5032258;28;46070;-80
2022/11/29 11:46:49;;;;;;;;;39.25;35.00;;;;;12.18;75.10;101353.25;5011072;28;45465;-81
2022/11/29 11:49:28;;;;;;;;;35.50;33.25;;;;;11.93;75.17;101312.81;5018911;28;45428;-81
2022/11/29 11:51:53;;;;;;;;;35.75;33.75;;;;;11.91;75.00;101322.34;5031446;28;46139;-80
2022/11/29 11:54:19;;;;;;;;;37.50;31.25;;;;;12.05;74.75;101352.75;5039117;28;45423;-80
2022/11/29 11:56:44;;;;;;;;;36.00;30.75;;;;;12.00;74.97;101353.44;5031438;28;45387;-80
2022/11/29 11:59:23;;;;;;;;;31.67;28.67;;;;;11.95;74.89;101352.34;5031823;28;45356;-81
2022/11/29 12:01:48;;;;;;;;;37.00;33.25;;;;;11.92;75.09;101349.59;5030840;28;45717;-84
2022/11/29 12:04:36;;;;;;;;;33.50;29.25;;;;;11.60;74.96;101301.81;5031650;28;45463;-81
2022/11/29 12:07:14;;;;;;;;;34.25;29.75;;;;;11.87;74.86;101347.72;5031240;28;45927;-85
2022/11/29 12:09:56;;;;;;;;;31.75;28.50;;;;;11.86;75.18;101356.41;5038825;28;45895;-84
2022/11/29 12:12:39;;;;;;;;;34.75;32.00;;;;;11.80;75.18;101350.88;5031476;28;46385;-82